createdAt,value
2023-02-11T00:00:50.879Z,6.63
2023-02-11T00:06:00.637Z,8.43
2023-02-11T00:11:05.464Z,8.38
2023-02-11T00:16:16.530Z,7.78
2023-02-11T00:21:23.304Z,6.53
2023-02-11T00:26:31.126Z,8.10
2023-02-11T00:31:36.835Z,9.10
2023-02-11T00:36:43.034Z,11.85
2023-02-11T00:41:47.323Z,5.68
2023-02-11T00:46:53.553Z,5.80
2023-02-11T00:52:00.571Z,9.13
2023-02-11T00:57:04.703Z,9.63
2023-02-11T01:02:10.200Z,6.35
2023-02-11T01:07:14.316Z,9.88
2023-02-11T01:12:18.340Z,6.70
2023-02-11T01:17:24.355Z,8.15
2023-02-11T01:22:28.631Z,7.45
2023-02-11T01:27:32.721Z,7.15
2023-02-11T01:32:38.215Z,9.45
2023-02-11T01:37:42.981Z,11.75
2023-02-11T01:42:48.874Z,10.10
2023-02-11T01:47:58.774Z,7.85
2023-02-11T01:53:24.255Z,7.60
2023-02-11T01:58:30.320Z,5.78
2023-02-11T02:03:39.087Z,7.70
2023-02-11T02:08:48.344Z,5.57
2023-02-11T02:13:52.431Z,5.65
2023-02-11T02:19:16.227Z,6.85
2023-02-11T02:24:56.727Z,7.65
2023-02-11T02:30:25.582Z,3.85
2023-02-11T02:35:41.768Z,6.25
2023-02-11T02:40:52.069Z,3.58
2023-02-11T02:45:56.391Z,7.05
2023-02-11T02:51:14.189Z,10.55
2023-02-11T02:56:27.519Z,9.85
2023-02-11T03:01:41.119Z,8.02
2023-02-11T03:06:53.988Z,10.70
2023-02-11T03:11:58.195Z,10.32
2023-02-11T03:17:06.231Z,6.45
2023-02-11T03:22:18.426Z,7.77
2023-02-11T03:27:27.025Z,6.72
2023-02-11T03:32:37.589Z,5.63
2023-02-11T03:37:50.348Z,6.75
2023-02-11T03:43:00.922Z,6.15
2023-02-11T03:48:13.742Z,5.22
2023-02-11T03:53:21.950Z,6.22
2023-02-11T03:58:26.287Z,7.82
2023-02-11T04:03:30.575Z,5.90
2023-02-11T04:08:35.945Z,5.53
2023-02-11T04:13:40.180Z,5.50
2023-02-11T04:18:44.301Z,5.00
2023-02-11T04:23:50.089Z,4.53
2023-02-11T04:28:54.068Z,4.55
2023-02-11T04:33:58.242Z,4.70
2023-02-11T04:39:04.498Z,4.30
2023-02-11T04:44:09.086Z,5.43
2023-02-11T04:49:14.745Z,5.15
2023-02-11T04:54:20.092Z,5.95
2023-02-11T04:59:24.177Z,11.77
2023-02-11T05:04:30.817Z,11.50
2023-02-11T05:09:36.468Z,5.53
2023-02-11T05:14:41.675Z,9.75
2023-02-11T05:19:45.746Z,9.00
2023-02-11T05:24:51.106Z,4.07
2023-02-11T05:29:55.125Z,5.50
2023-02-11T05:34:59.214Z,8.82
2023-02-11T05:40:06.579Z,9.60
2023-02-11T05:45:11.096Z,7.03
2023-02-11T05:50:15.317Z,11.75
2023-02-11T05:55:20.840Z,8.63
2023-02-11T06:00:25.321Z,8.85
2023-02-11T06:05:29.380Z,8.45
2023-02-11T06:10:34.898Z,10.77
2023-02-11T06:15:41.312Z,9.63
2023-02-11T06:20:45.921Z,14.15
2023-02-11T06:25:51.683Z,11.30
2023-02-11T06:30:55.937Z,6.47
2023-02-11T06:35:59.970Z,5.78
2023-02-11T06:41:07.318Z,8.52
2023-02-11T06:46:11.483Z,8.20
2023-02-11T06:51:17.243Z,13.40
2023-02-11T06:56:24.847Z,13.73
2023-02-11T07:01:29.807Z,16.73
2023-02-11T07:06:34.010Z,23.08
2023-02-11T07:11:39.654Z,36.05
2023-02-11T07:16:44.936Z,38.53
2023-02-11T07:21:49.855Z,16.23
2023-02-11T07:26:56.043Z,9.32
2023-02-11T07:32:00.687Z,7.32
2023-02-11T07:37:04.767Z,9.15
2023-02-11T07:42:10.164Z,10.25
2023-02-11T07:47:14.142Z,10.38
2023-02-11T07:52:18.159Z,11.80
2023-02-11T07:57:23.464Z,11.68
2023-02-11T08:02:27.747Z,11.00
2023-02-11T08:07:32.564Z,9.63
2023-02-11T08:12:37.977Z,8.95
2023-02-11T08:17:43.103Z,8.15
2023-02-11T08:22:49.085Z,8.23
2023-02-11T08:27:57.167Z,8.43
2023-02-11T08:33:01.561Z,8.05
2023-02-11T08:38:05.572Z,8.30
2023-02-11T08:43:11.483Z,10.63
2023-02-11T08:48:16.482Z,10.00
2023-02-11T08:53:20.622Z,11.98
2023-02-11T08:58:26.334Z,16.45
2023-02-11T09:03:30.874Z,30.42
2023-02-11T09:08:36.751Z,19.65
2023-02-11T09:13:44.606Z,19.77
2023-02-11T09:18:49.385Z,16.73
2023-02-11T09:23:54.267Z,11.13
2023-02-11T09:29:00.293Z,11.45
2023-02-11T09:34:06.922Z,16.35
2023-02-11T09:39:14.161Z,11.35
2023-02-11T09:44:23.968Z,9.07
2023-02-11T09:49:36.215Z,12.45
2023-02-11T09:54:51.400Z,13.40
2023-02-11T09:59:57.384Z,10.00
2023-02-11T10:05:23.893Z,9.65
2023-02-11T10:10:42.203Z,13.38
2023-02-11T10:15:53.514Z,15.70
2023-02-11T10:21:09.420Z,9.05
2023-02-11T10:26:16.056Z,10.73
2023-02-11T10:31:26.125Z,12.13
2023-02-11T10:36:37.348Z,28.50
2023-02-11T10:41:45.866Z,12.20
2023-02-11T10:46:53.486Z,7.85
2023-02-11T10:52:15.187Z,10.23
2023-02-11T10:57:21.234Z,7.40
2023-02-11T11:02:32.278Z,7.05
2023-02-11T11:07:37.725Z,8.32
2023-02-11T11:12:49.796Z,6.20
2023-02-11T11:18:21.516Z,8.15
2023-02-11T11:23:27.512Z,7.25
2023-02-11T11:28:39.004Z,8.35
2023-02-11T11:33:45.760Z,9.32
2023-02-11T11:38:53.707Z,6.70
2023-02-11T11:44:04.780Z,5.90
2023-02-11T11:49:22.620Z,7.90
2023-02-11T11:54:29.387Z,6.63
2023-02-11T11:59:33.545Z,6.10
2023-02-11T12:05:00.129Z,7.95
2023-02-11T12:10:36.134Z,7.32
2023-02-11T12:15:51.072Z,6.38
2023-02-11T12:21:13.533Z,9.45
2023-02-11T12:26:21.688Z,7.15
2023-02-11T12:31:35.577Z,13.18
2023-02-11T12:36:58.059Z,16.77
2023-02-11T12:42:48.349Z,8.45
2023-02-11T12:48:06.662Z,7.80
2023-02-11T12:53:34.841Z,13.77
2023-02-11T12:58:45.373Z,9.25
2023-02-11T13:03:54.740Z,9.43
2023-02-11T13:09:02.976Z,8.10
2023-02-11T13:14:14.127Z,10.55
2023-02-11T13:19:27.570Z,10.07
2023-02-11T13:24:44.347Z,10.52
2023-02-11T13:30:23.659Z,9.73
2023-02-11T13:35:30.246Z,10.40
2023-02-11T13:40:37.906Z,10.75
2023-02-11T13:45:47.216Z,15.53
2023-02-11T13:50:54.427Z,14.00
2023-02-11T13:56:11.400Z,10.63
2023-02-11T14:01:40.825Z,10.23
2023-02-11T14:07:45.277Z,12.57
2023-02-11T14:13:07.008Z,15.25
2023-02-11T14:18:39.184Z,14.90
2023-02-11T14:23:43.809Z,15.10
2023-02-11T14:28:52.345Z,10.27
2023-02-11T14:34:13.347Z,13.00
2023-02-11T14:39:27.062Z,14.57
2023-02-11T14:44:35.648Z,10.82
2023-02-11T14:49:41.479Z,12.47
2023-02-11T14:54:49.265Z,21.77
2023-02-11T14:59:59.179Z,17.77
2023-02-11T15:05:19.128Z,19.80
2023-02-11T15:10:31.504Z,21.95
2023-02-11T15:15:41.668Z,14.55
2023-02-11T15:20:46.827Z,18.40
2023-02-11T15:25:56.631Z,20.20
2023-02-11T15:31:05.565Z,23.67
2023-02-11T15:36:12.755Z,23.83
2023-02-11T15:41:36.967Z,25.38
2023-02-11T15:46:47.523Z,39.40
2023-02-11T15:51:52.123Z,15.50
2023-02-11T15:57:03.621Z,17.35
2023-02-11T16:02:18.853Z,20.17
2023-02-11T16:07:42.092Z,32.70
2023-02-11T16:12:53.507Z,23.85
2023-02-11T16:17:59.341Z,23.58
2023-02-11T16:23:05.124Z,31.42
2023-02-11T16:28:17.450Z,41.15
2023-02-11T16:33:23.727Z,26.45
2023-02-11T16:38:27.772Z,17.58
2023-02-11T16:43:31.793Z,29.77
2023-02-11T16:48:39.020Z,30.83
2023-02-11T16:53:43.222Z,33.58
2023-02-11T16:58:47.360Z,27.77
2023-02-11T17:03:54.149Z,32.95
2023-02-11T17:08:59.653Z,30.40
2023-02-11T17:14:03.859Z,34.28
2023-02-11T17:19:13.319Z,21.08
2023-02-11T17:24:18.226Z,30.75
2023-02-11T17:29:24.087Z,29.92
2023-02-11T17:34:29.642Z,32.58
2023-02-11T17:39:33.690Z,34.45
2023-02-11T17:44:37.689Z,38.78
2023-02-11T17:49:43.294Z,25.63
2023-02-11T17:54:47.363Z,14.75
2023-02-11T17:59:51.814Z,21.63
2023-02-11T18:04:58.947Z,21.65
2023-02-11T18:10:03.255Z,26.15
2023-02-11T18:15:08.897Z,24.27
2023-02-11T18:20:15.018Z,23.10
2023-02-11T18:25:20.154Z,20.77
2023-02-11T18:30:26.086Z,18.73
2023-02-11T18:35:31.680Z,22.40
2023-02-11T18:40:41.167Z,20.02
2023-02-11T18:45:45.741Z,18.40
2023-02-11T18:50:51.224Z,21.30
2023-02-11T18:55:55.721Z,26.08
2023-02-11T19:01:00.219Z,37.80
2023-02-11T19:06:06.251Z,40.97
2023-02-11T19:11:16.221Z,31.33
2023-02-11T19:16:21.560Z,24.08
2023-02-11T19:21:27.028Z,17.10
2023-02-11T19:26:31.365Z,37.28
2023-02-11T19:31:36.226Z,31.85
2023-02-11T19:36:42.039Z,29.13
2023-02-11T19:41:46.104Z,31.98
2023-02-11T19:46:53.478Z,29.70
2023-02-11T19:52:01.932Z,24.38
2023-02-11T19:57:06.031Z,24.43
2023-02-11T20:02:11.630Z,17.23
2023-02-11T20:07:17.341Z,14.18
2023-02-11T20:12:22.804Z,14.57
2023-02-11T20:17:26.851Z,14.50
2023-02-11T20:22:32.327Z,15.40
2023-02-11T20:27:36.424Z,16.50
2023-02-11T20:32:40.962Z,16.60
2023-02-11T20:37:46.335Z,17.98
2023-02-11T20:42:50.761Z,17.27
2023-02-11T20:47:55.545Z,18.45
2023-02-11T20:53:01.136Z,14.18
2023-02-11T20:58:05.935Z,14.95
2023-02-11T21:03:10.084Z,22.73
2023-02-11T21:08:15.914Z,30.60
2023-02-11T21:13:19.864Z,34.72
2023-02-11T21:18:25.361Z,31.00
2023-02-11T21:23:30.937Z,17.27
2023-02-11T21:28:35.485Z,18.33
2023-02-11T21:33:39.615Z,16.63
2023-02-11T21:38:45.029Z,13.07
2023-02-11T21:43:49.582Z,17.25
2023-02-11T21:48:53.578Z,16.17
2023-02-11T21:54:03.823Z,13.88
2023-02-11T21:59:07.851Z,14.70
2023-02-11T22:04:12.099Z,14.27
2023-02-11T22:09:17.645Z,16.77
2023-02-11T22:14:22.140Z,11.25
2023-02-11T22:19:26.147Z,13.35
2023-02-11T22:24:31.711Z,13.30
2023-02-11T22:29:35.997Z,17.65
2023-02-11T22:34:40.128Z,21.20
2023-02-11T22:39:45.570Z,13.95
2023-02-11T22:44:49.603Z,13.07
2023-02-11T22:49:53.646Z,18.98
2023-02-11T22:55:00.532Z,16.40
2023-02-11T23:00:09.855Z,13.77
2023-02-11T23:05:14.277Z,13.82
2023-02-11T23:10:20.186Z,12.00
2023-02-11T23:15:24.323Z,18.73
2023-02-11T23:20:28.474Z,15.68
2023-02-11T23:25:35.026Z,18.02
2023-02-11T23:30:39.668Z,13.98
2023-02-11T23:35:43.761Z,14.60
2023-02-11T23:40:51.699Z,15.60
2023-02-11T23:45:56.036Z,13.07
2023-02-11T23:51:00.162Z,15.20
2023-02-11T23:56:11.757Z,18.00
